createdAt,value
2018-06-09T00:00:11.144Z,18.00
2018-06-09T00:02:39.460Z,18.00
2018-06-09T00:05:07.775Z,18.00
2018-06-09T00:07:36.137Z,18.00
2018-06-09T00:10:04.479Z,18.00
2018-06-09T00:12:32.903Z,17.90
2018-06-09T00:15:01.263Z,17.80
2018-06-09T00:17:29.590Z,17.80
2018-06-09T00:19:57.917Z,17.80
2018-06-09T00:22:26.281Z,17.80
2018-06-09T00:24:54.622Z,17.80
2018-06-09T00:27:22.953Z,17.80
2018-06-09T00:29:51.244Z,17.80
2018-06-09T00:32:19.930Z,17.80
2018-06-09T00:34:48.254Z,17.80
2018-06-09T00:37:16.586Z,17.80
2018-06-09T00:39:44.867Z,17.80
2018-06-09T00:42:13.186Z,17.80
2018-06-09T00:47:09.524Z,18.00
2018-06-09T00:49:37.876Z,18.00
2018-06-09T00:52:06.173Z,18.00
2018-06-09T00:54:34.515Z,18.00
2018-06-09T00:57:02.885Z,18.10
2018-06-09T00:59:31.185Z,18.00
2018-06-09T01:01:59.542Z,18.10
2018-06-09T01:04:27.875Z,18.20
2018-06-09T01:06:56.212Z,18.10
2018-06-09T01:09:24.518Z,18.10
2018-06-09T01:11:52.839Z,18.10
2018-06-09T01:14:21.177Z,18.00
2018-06-09T01:16:49.590Z,17.90
2018-06-09T01:19:17.906Z,18.00
2018-06-09T01:21:46.192Z,17.90
2018-06-09T01:24:14.465Z,17.90
2018-06-09T01:26:42.780Z,17.80
2018-06-09T01:29:11.090Z,17.70
2018-06-09T01:31:39.387Z,17.70
2018-06-09T01:34:07.790Z,17.60
2018-06-09T01:36:36.102Z,17.50
2018-06-09T01:39:06.916Z,17.60
2018-06-09T01:41:35.379Z,17.60
2018-06-09T01:44:03.885Z,17.60
2018-06-09T01:46:32.505Z,17.70
2018-06-09T01:49:00.819Z,17.60
2018-06-09T01:51:29.131Z,17.70
2018-06-09T01:53:57.425Z,17.60
2018-06-09T01:56:25.713Z,17.60
2018-06-09T01:58:54.010Z,17.60
2018-06-09T02:01:22.625Z,17.60
2018-06-09T02:03:57.424Z,17.60
2018-06-09T02:06:25.866Z,17.60
2018-06-09T02:08:54.253Z,17.50
2018-06-09T02:11:22.741Z,17.40
2018-06-09T02:13:51.225Z,17.40
2018-06-09T02:16:19.525Z,17.40
2018-06-09T02:18:48.451Z,17.40
2018-06-09T02:21:16.730Z,17.30
2018-06-09T02:23:44.999Z,17.30
2018-06-09T02:26:13.293Z,17.30
2018-06-09T02:28:41.931Z,17.30
2018-06-09T02:31:10.217Z,17.30
2018-06-09T02:33:38.518Z,17.30
2018-06-09T02:36:06.802Z,17.30
2018-06-09T02:38:35.090Z,17.30
2018-06-09T02:41:03.385Z,17.30
2018-06-09T02:43:31.696Z,17.30
2018-06-09T02:45:59.990Z,17.30
2018-06-09T02:48:28.272Z,17.30
2018-06-09T02:50:56.557Z,17.20
2018-06-09T02:53:24.849Z,17.10
2018-06-09T02:55:53.124Z,17.10
2018-06-09T02:58:21.414Z,17.20
2018-06-09T03:00:49.705Z,17.10
2018-06-09T03:03:18.001Z,17.10
2018-06-09T03:05:46.301Z,17.00
2018-06-09T03:08:14.597Z,17.00
2018-06-09T03:10:42.880Z,16.90
2018-06-09T03:13:11.476Z,16.80
2018-06-09T03:15:40.001Z,16.80
2018-06-09T03:18:08.311Z,16.80
2018-06-09T03:20:36.604Z,16.80
2018-06-09T03:23:04.910Z,16.90
2018-06-09T03:25:33.320Z,17.00
2018-06-09T03:28:01.719Z,17.00
2018-06-09T03:30:30.005Z,17.00
2018-06-09T03:32:58.974Z,17.00
2018-06-09T03:35:27.351Z,17.00
2018-06-09T03:37:55.638Z,17.00
2018-06-09T03:40:24.030Z,17.00
2018-06-09T03:42:52.408Z,17.10
2018-06-09T03:45:20.707Z,17.10
2018-06-09T03:47:49.069Z,17.20
2018-06-09T03:50:17.432Z,17.30
2018-06-09T03:52:45.838Z,17.30
2018-06-09T03:55:14.146Z,17.40
2018-06-09T03:57:42.587Z,17.50
2018-06-09T04:00:11.183Z,17.60
2018-06-09T04:02:39.470Z,17.70
2018-06-09T04:05:07.823Z,17.70
2018-06-09T04:07:36.080Z,17.70
2018-06-09T04:10:04.433Z,17.70
2018-06-09T04:12:32.705Z,17.80
2018-06-09T04:15:01.217Z,18.00
2018-06-09T04:17:29.734Z,18.40
2018-06-09T04:19:58.110Z,18.60
2018-06-09T04:22:26.402Z,18.80
2018-06-09T04:24:54.909Z,18.90
2018-06-09T04:27:23.218Z,18.90
2018-06-09T04:29:51.524Z,19.10
2018-06-09T04:32:20.298Z,19.20
2018-06-09T04:34:48.590Z,19.20
2018-06-09T04:37:16.884Z,19.20
2018-06-09T04:39:45.190Z,19.20
2018-06-09T04:42:13.523Z,19.10
2018-06-09T04:44:42.175Z,19.20
2018-06-09T04:47:10.837Z,19.30
2018-06-09T04:49:39.110Z,19.40
2018-06-09T04:52:07.473Z,19.40
2018-06-09T04:54:35.818Z,19.40
2018-06-09T04:57:04.106Z,19.40
2018-06-09T04:59:32.382Z,19.40
2018-06-09T05:02:00.683Z,19.40
2018-06-09T05:04:29.203Z,19.50
2018-06-09T05:06:57.481Z,19.70
2018-06-09T05:09:25.784Z,19.80
2018-06-09T05:11:54.185Z,20.00
2018-06-09T05:14:22.563Z,20.00
2018-06-09T05:16:50.992Z,20.10
2018-06-09T05:19:19.313Z,20.30
2018-06-09T05:21:47.960Z,20.50
2018-06-09T05:24:16.233Z,20.60
2018-06-09T05:26:44.558Z,20.70
2018-06-09T05:29:12.836Z,20.90
2018-06-09T05:31:41.177Z,21.00
2018-06-09T05:36:37.509Z,21.10
2018-06-09T05:39:07.677Z,21.10
2018-06-09T05:41:35.966Z,21.10
2018-06-09T05:44:04.289Z,21.20
2018-06-09T05:46:32.597Z,21.10
2018-06-09T05:49:00.914Z,21.10
2018-06-09T05:51:29.226Z,21.10
2018-06-09T05:53:57.525Z,21.00
2018-06-09T05:56:25.808Z,21.10
2018-06-09T05:58:54.108Z,21.10
2018-06-09T06:01:22.409Z,21.00
2018-06-09T06:03:50.685Z,21.00
2018-06-09T06:06:18.996Z,21.00
2018-06-09T06:08:47.472Z,21.00
2018-06-09T06:11:15.946Z,20.90
2018-06-09T06:13:44.273Z,20.80
2018-06-09T06:16:12.595Z,20.70
2018-06-09T06:18:40.882Z,20.70
2018-06-09T06:21:09.192Z,20.70
2018-06-09T06:23:37.489Z,20.90
2018-06-09T06:26:05.804Z,21.00
2018-06-09T06:28:34.084Z,21.00
2018-06-09T06:31:02.375Z,21.10
2018-06-09T06:33:30.678Z,21.10
2018-06-09T06:35:58.968Z,21.20
2018-06-09T06:38:27.252Z,21.20
2018-06-09T06:40:55.534Z,21.40
2018-06-09T06:43:23.835Z,21.50
2018-06-09T06:48:20.161Z,21.80
2018-06-09T06:50:49.378Z,21.80
2018-06-09T06:53:17.678Z,21.80
2018-06-09T06:55:45.976Z,21.90
2018-06-09T06:58:14.273Z,21.90
2018-06-09T07:00:42.564Z,21.60
2018-06-09T07:03:10.846Z,21.70
2018-06-09T07:05:39.160Z,21.60
2018-06-09T07:08:07.489Z,21.60
2018-06-09T07:10:35.770Z,21.80
2018-06-09T07:13:04.229Z,21.80
2018-06-09T07:15:32.887Z,21.90
2018-06-09T07:18:01.278Z,21.80
2018-06-09T07:20:29.568Z,21.90
2018-06-09T07:22:57.898Z,22.00
2018-06-09T07:25:26.201Z,22.10
2018-06-09T07:27:54.687Z,22.20
2018-06-09T07:30:22.997Z,22.40
2018-06-09T07:32:51.464Z,22.50
2018-06-09T07:35:19.879Z,22.80
2018-06-09T07:37:48.293Z,22.90
2018-06-09T07:40:16.764Z,23.10
2018-06-09T07:42:45.166Z,23.30
2018-06-09T07:45:13.535Z,23.40
2018-06-09T07:47:41.942Z,23.60
2018-06-09T07:50:10.309Z,23.50
2018-06-09T07:52:38.737Z,23.60
2018-06-09T07:55:07.337Z,23.50
2018-06-09T07:57:35.765Z,23.50
2018-06-09T08:00:04.223Z,23.20
2018-06-09T08:02:32.592Z,23.00
2018-06-09T08:05:00.996Z,22.90
2018-06-09T08:07:29.430Z,22.70
2018-06-09T08:09:57.816Z,22.60
2018-06-09T08:12:26.291Z,22.60
2018-06-09T08:14:54.689Z,22.60
2018-06-09T08:17:23.242Z,22.70
2018-06-09T08:19:51.687Z,22.80
2018-06-09T08:22:20.141Z,23.00
2018-06-09T08:24:48.574Z,23.20
2018-06-09T08:27:16.979Z,23.30
2018-06-09T08:29:45.263Z,23.40
2018-06-09T08:32:13.692Z,23.30
2018-06-09T08:34:42.074Z,23.40
2018-06-09T08:37:10.567Z,23.50
2018-06-09T08:39:39.005Z,23.50
2018-06-09T08:42:07.447Z,23.60
2018-06-09T08:44:35.856Z,23.70
2018-06-09T08:47:04.405Z,23.90
2018-06-09T08:49:32.794Z,24.00
2018-06-09T08:52:01.231Z,23.90
2018-06-09T08:54:29.604Z,23.90
2018-06-09T08:56:58.067Z,23.90
2018-06-09T08:59:26.458Z,23.90
2018-06-09T09:01:54.807Z,24.00
2018-06-09T09:04:23.060Z,24.10
2018-06-09T09:06:51.396Z,24.30
2018-06-09T09:09:19.671Z,24.40
2018-06-09T09:11:47.981Z,24.40
2018-06-09T09:14:16.282Z,24.50
2018-06-09T09:16:44.582Z,24.40
2018-06-09T09:19:12.892Z,24.30
2018-06-09T09:21:41.182Z,24.20
2018-06-09T09:24:09.580Z,24.20
2018-06-09T09:26:37.853Z,24.00
2018-06-09T09:29:06.139Z,24.00
2018-06-09T09:31:34.460Z,24.10
2018-06-09T09:34:02.786Z,24.10
2018-06-09T09:36:31.243Z,24.20
2018-06-09T09:38:59.560Z,24.30
2018-06-09T09:41:27.849Z,24.60
2018-06-09T09:43:56.138Z,24.80
2018-06-09T09:46:24.475Z,25.10
2018-06-09T09:48:52.719Z,25.40
2018-06-09T09:51:20.985Z,25.70
2018-06-09T09:53:49.280Z,26.00
2018-06-09T09:56:17.578Z,25.90
2018-06-09T09:58:45.870Z,25.80
2018-06-09T10:01:14.227Z,25.70
2018-06-09T10:03:42.539Z,25.80
2018-06-09T10:06:10.846Z,26.10
2018-06-09T10:08:39.154Z,26.20
2018-06-09T10:11:07.483Z,26.40
2018-06-09T10:13:35.814Z,26.40
2018-06-09T10:16:04.116Z,26.50
2018-06-09T10:18:32.434Z,26.50
2018-06-09T10:21:00.755Z,26.30
2018-06-09T10:23:29.077Z,26.10
2018-06-09T10:25:57.355Z,26.10
2018-06-09T10:28:25.712Z,25.60
2018-06-09T10:30:54.006Z,25.60
2018-06-09T10:33:22.291Z,25.80
2018-06-09T10:35:50.575Z,25.80
2018-06-09T10:38:18.845Z,26.00
2018-06-09T10:40:47.133Z,26.10
2018-06-09T10:43:15.406Z,25.70
2018-06-09T10:45:43.718Z,25.40
2018-06-09T10:48:12.029Z,25.50
2018-06-09T10:50:40.326Z,25.40
2018-06-09T10:53:08.647Z,25.60
2018-06-09T10:55:36.960Z,25.70
2018-06-09T10:58:05.244Z,25.70
2018-06-09T11:00:33.519Z,25.40
2018-06-09T11:03:01.796Z,25.30
2018-06-09T11:05:30.126Z,25.00
2018-06-09T11:07:58.412Z,24.90
2018-06-09T11:10:26.761Z,24.80
2018-06-09T11:12:55.072Z,25.20
2018-06-09T11:15:23.409Z,25.60
2018-06-09T11:17:51.705Z,25.90
2018-06-09T11:20:20.015Z,26.20
2018-06-09T11:22:48.306Z,26.40
2018-06-09T11:25:16.614Z,26.50
2018-06-09T11:27:44.939Z,26.50
2018-06-09T11:32:41.236Z,26.50
2018-06-09T11:35:09.558Z,26.60
2018-06-09T11:37:37.850Z,26.50
2018-06-09T11:40:06.140Z,26.40
2018-06-09T11:42:34.426Z,26.40
2018-06-09T11:45:02.736Z,26.30
2018-06-09T11:47:31.038Z,26.10
2018-06-09T11:52:27.358Z,26.00
2018-06-09T11:54:55.656Z,26.20
2018-06-09T11:57:23.942Z,26.20
2018-06-09T11:59:52.217Z,26.30
2018-06-09T12:02:20.534Z,26.40
2018-06-09T12:04:48.814Z,26.50
2018-06-09T12:07:17.139Z,26.30
2018-06-09T12:09:45.433Z,26.30
2018-06-09T12:12:13.718Z,26.10
2018-06-09T12:14:42.049Z,26.10
2018-06-09T12:17:10.411Z,26.30
2018-06-09T12:19:38.671Z,26.40
2018-06-09T12:22:07.041Z,26.50
2018-06-09T12:24:35.558Z,26.50
2018-06-09T12:27:03.846Z,26.70
2018-06-09T12:29:32.126Z,27.10
2018-06-09T12:32:00.390Z,27.30
2018-06-09T12:34:28.664Z,27.50
2018-06-09T12:36:56.935Z,27.70
2018-06-09T12:39:25.480Z,27.80
2018-06-09T12:41:53.892Z,27.90
2018-06-09T12:44:22.189Z,27.90
2018-06-09T12:46:50.465Z,27.80
2018-06-09T12:49:18.744Z,28.00
2018-06-09T12:51:47.036Z,28.20
2018-06-09T12:54:15.492Z,28.20
2018-06-09T12:56:44.672Z,28.00
2018-06-09T12:59:13.102Z,27.80
2018-06-09T13:01:41.465Z,27.80
2018-06-09T13:04:09.787Z,27.90
2018-06-09T13:06:38.205Z,28.20
2018-06-09T13:09:07.473Z,28.50
2018-06-09T13:11:35.869Z,28.60
2018-06-09T13:14:04.193Z,28.60
2018-06-09T13:16:32.463Z,28.40
2018-06-09T13:19:00.776Z,28.40
2018-06-09T13:21:29.093Z,28.20
2018-06-09T13:26:32.080Z,28.10
2018-06-09T13:29:00.393Z,27.90
2018-06-09T13:31:30.092Z,28.00
2018-06-09T13:33:58.752Z,28.20
2018-06-09T13:36:27.787Z,28.00
2018-06-09T13:38:56.731Z,27.90
2018-06-09T13:41:25.123Z,27.90
2018-06-09T13:43:53.329Z,27.60
2018-06-09T13:46:21.649Z,27.50
2018-06-09T13:48:50.263Z,27.50
2018-06-09T13:51:18.969Z,27.70
2018-06-09T13:53:47.695Z,28.00
2018-06-09T13:56:15.977Z,28.10
2018-06-09T13:58:44.397Z,28.30
2018-06-09T14:01:13.219Z,28.30
2018-06-09T14:03:41.853Z,28.20
2018-06-09T14:06:10.436Z,28.20
2018-06-09T14:08:39.050Z,28.20
2018-06-09T14:11:07.513Z,28.10
2018-06-09T14:13:36.214Z,28.20
2018-06-09T14:16:04.524Z,28.60
2018-06-09T14:18:32.812Z,28.90
2018-06-09T14:21:01.580Z,28.80
2018-06-09T14:23:30.261Z,28.80
2018-06-09T14:25:58.882Z,29.10
2018-06-09T14:28:27.693Z,29.30
2018-06-09T14:30:56.328Z,29.60
2018-06-09T14:33:25.050Z,29.80
2018-06-09T14:35:53.861Z,30.00
2018-06-09T14:38:22.174Z,29.60
2018-06-09T14:40:51.422Z,28.80
2018-06-09T14:43:19.716Z,28.30
2018-06-09T14:45:48.046Z,27.80
2018-06-09T14:48:16.337Z,27.30
2018-06-09T14:50:45.841Z,27.00
2018-06-09T14:53:14.185Z,26.60
2018-06-09T14:55:43.202Z,26.40
2018-06-09T14:58:12.009Z,26.20
2018-06-09T15:00:41.013Z,26.10
2018-06-09T15:03:09.359Z,25.80
2018-06-09T15:05:37.759Z,25.50
2018-06-09T15:08:06.883Z,25.50
2018-06-09T15:10:35.186Z,25.40
2018-06-09T15:13:03.516Z,25.50
2018-06-09T15:15:31.810Z,25.60
2018-06-09T15:18:00.201Z,25.60
2018-06-09T15:20:29.120Z,25.50
2018-06-09T15:22:58.090Z,25.60
2018-06-09T15:25:26.446Z,26.00
2018-06-09T15:27:56.259Z,26.10
2018-06-09T15:30:25.167Z,26.00
2018-06-09T15:32:54.247Z,25.90
2018-06-09T15:35:23.234Z,26.00
2018-06-09T15:37:52.102Z,26.40
2018-06-09T15:40:21.890Z,26.90
2018-06-09T15:42:52.486Z,27.40
2018-06-09T15:45:21.236Z,28.30
2018-06-09T15:47:50.095Z,28.20
2018-06-09T15:50:19.380Z,27.90
2018-06-09T15:52:48.690Z,27.50
2018-06-09T15:55:17.713Z,27.00
2018-06-09T15:57:46.026Z,26.70
2018-06-09T16:00:15.151Z,26.60
2018-06-09T16:02:43.933Z,26.30
2018-06-09T16:05:13.169Z,26.00
2018-06-09T16:07:41.742Z,25.60
2018-06-09T16:10:10.293Z,25.20
2018-06-09T16:12:39.424Z,25.00
2018-06-09T16:15:08.383Z,25.00
2018-06-09T16:17:36.943Z,24.60
2018-06-09T16:20:05.721Z,24.50
2018-06-09T16:22:34.237Z,24.60
2018-06-09T16:25:03.003Z,24.60
2018-06-09T16:27:31.604Z,24.20
2018-06-09T16:30:00.248Z,24.20
2018-06-09T16:32:28.789Z,24.00
2018-06-09T16:34:57.311Z,24.10
2018-06-09T16:39:54.119Z,23.90
2018-06-09T16:42:22.734Z,23.90
2018-06-09T16:44:51.269Z,23.90
2018-06-09T16:47:19.779Z,24.00
2018-06-09T16:49:48.101Z,23.90
2018-06-09T16:52:16.730Z,23.90
2018-06-09T16:54:45.344Z,24.00
2018-06-09T16:57:14.012Z,24.10
2018-06-09T16:59:42.579Z,24.00
2018-06-09T17:02:13.975Z,24.00
2018-06-09T17:04:48.697Z,24.20
2018-06-09T17:07:17.231Z,24.30
2018-06-09T17:09:45.913Z,24.40
2018-06-09T17:12:14.475Z,24.50
2018-06-09T17:14:43.174Z,24.60
2018-06-09T17:17:11.892Z,24.70
2018-06-09T17:19:40.415Z,24.80
2018-06-09T17:22:08.958Z,24.60
2018-06-09T17:27:06.049Z,24.60
2018-06-09T17:29:34.680Z,25.60
2018-06-09T17:32:03.398Z,27.20
2018-06-09T17:34:32.023Z,29.00
2018-06-09T17:37:00.876Z,30.30
2018-06-09T17:39:29.446Z,31.20
2018-06-09T17:41:58.310Z,32.00
2018-06-09T17:44:26.586Z,32.40
2018-06-09T17:46:55.322Z,32.90
2018-06-09T17:49:24.111Z,33.00
2018-06-09T17:51:52.941Z,33.00
2018-06-09T17:54:21.556Z,33.50
2018-06-09T17:56:51.042Z,33.50
2018-06-09T18:01:48.188Z,33.80
2018-06-09T18:04:17.045Z,33.30
2018-06-09T18:06:45.690Z,32.90
2018-06-09T18:09:14.586Z,32.30
2018-06-09T18:11:43.260Z,31.60
2018-06-09T18:14:11.956Z,31.40
2018-06-09T18:16:40.314Z,31.40
2018-06-09T18:19:08.892Z,31.40
2018-06-09T18:21:37.530Z,31.20
2018-06-09T18:24:05.866Z,30.80
2018-06-09T18:26:35.276Z,30.40
2018-06-09T18:29:03.595Z,30.10
2018-06-09T18:31:31.913Z,29.90
2018-06-09T18:34:00.265Z,29.40
2018-06-09T18:36:28.525Z,28.70
2018-06-09T18:38:56.971Z,28.10
2018-06-09T18:41:25.397Z,27.50
2018-06-09T18:43:53.771Z,26.90
2018-06-09T18:46:22.170Z,26.20
2018-06-09T18:48:50.507Z,25.70
2018-06-09T18:51:18.838Z,25.50
2018-06-09T18:53:47.153Z,25.20
2018-06-09T18:58:43.597Z,24.60
2018-06-09T19:01:11.969Z,24.30
2018-06-09T19:03:40.993Z,24.10
2018-06-09T19:06:09.340Z,24.00
2018-06-09T19:08:37.655Z,23.80
2018-06-09T19:11:06.157Z,23.60
2018-06-09T19:13:35.062Z,23.50
2018-06-09T19:16:03.646Z,23.40
2018-06-09T19:18:31.975Z,23.30
2018-06-09T19:21:00.265Z,23.20
2018-06-09T19:23:28.585Z,23.10
2018-06-09T19:25:57.120Z,23.00
2018-06-09T19:28:25.581Z,22.90
2018-06-09T19:30:53.896Z,22.70
2018-06-09T19:33:22.607Z,22.50
2018-06-09T19:35:50.914Z,22.40
2018-06-09T19:38:19.310Z,22.30
2018-06-09T19:40:47.802Z,22.30
2018-06-09T19:43:16.235Z,22.20
2018-06-09T19:45:44.729Z,22.30
2018-06-09T19:48:13.089Z,22.20
2018-06-09T19:50:41.502Z,22.20
2018-06-09T19:53:09.991Z,22.10
2018-06-09T19:55:38.325Z,22.20
2018-06-09T19:58:06.915Z,22.10
2018-06-09T20:00:35.298Z,22.20
2018-06-09T20:03:03.889Z,22.20
2018-06-09T20:05:32.501Z,22.30
2018-06-09T20:08:01.015Z,22.20
2018-06-09T20:10:29.586Z,22.20
2018-06-09T20:12:58.136Z,22.20
2018-06-09T20:15:26.561Z,22.20
2018-06-09T20:17:55.076Z,22.10
2018-06-09T20:20:23.533Z,22.10
2018-06-09T20:22:51.849Z,22.10
2018-06-09T20:25:20.469Z,22.10
2018-06-09T20:27:48.894Z,22.10
2018-06-09T20:30:17.365Z,22.00
2018-06-09T20:32:45.816Z,22.00
2018-06-09T20:35:14.268Z,22.10
2018-06-09T20:37:42.764Z,22.10
2018-06-09T20:40:11.394Z,22.10
2018-06-09T20:42:39.855Z,22.10
2018-06-09T20:45:08.198Z,22.20
2018-06-09T20:47:36.685Z,22.00
2018-06-09T20:50:05.227Z,21.90
2018-06-09T20:52:33.763Z,21.80
2018-06-09T20:55:02.126Z,21.80
2018-06-09T20:57:30.732Z,21.80
2018-06-09T20:59:59.231Z,22.00
2018-06-09T21:02:27.751Z,22.00
2018-06-09T21:04:56.114Z,22.00
2018-06-09T21:07:24.432Z,21.90
2018-06-09T21:09:53.034Z,21.80
2018-06-09T21:12:21.775Z,21.70
2018-06-09T21:14:50.141Z,21.70
2018-06-09T21:17:18.607Z,21.90
2018-06-09T21:19:47.116Z,21.90
2018-06-09T21:22:15.465Z,22.00
2018-06-09T21:24:43.934Z,21.90
2018-06-09T21:27:17.857Z,22.00
2018-06-09T21:29:55.268Z,22.00
2018-06-09T21:32:33.622Z,22.00
2018-06-09T21:35:18.906Z,22.00
2018-06-09T21:37:48.245Z,22.00
2018-06-09T21:40:23.935Z,22.10
2018-06-09T23:04:55.926Z,22.10
2018-06-09T23:07:24.365Z,20.10
2018-06-09T23:09:52.799Z,20.10
2018-06-09T23:12:21.105Z,20.20
2018-06-09T23:14:49.420Z,20.20
2018-06-09T23:17:17.748Z,20.30
2018-06-09T23:19:46.048Z,20.20
2018-06-09T23:22:14.355Z,20.30
2018-06-09T23:24:42.665Z,20.30
2018-06-09T23:29:38.978Z,20.30
2018-06-09T23:32:07.280Z,20.30
2018-06-09T23:34:35.621Z,20.30
2018-06-09T23:37:04.440Z,20.40
2018-06-09T23:39:32.798Z,20.40
2018-06-09T23:42:01.166Z,20.50
2018-06-09T23:44:29.487Z,20.50
2018-06-09T23:46:57.828Z,20.60
2018-06-09T23:49:26.130Z,20.60
2018-06-09T23:51:54.476Z,20.60
2018-06-09T23:54:22.792Z,20.60
2018-06-09T23:56:51.076Z,20.60
2018-06-09T23:59:19.381Z,20.60
